Weather at Gabrovnitsa Air Base [CLOSED]

Public forecast

Using degrees Celsius for public forecast. Weather courtesy of forecast.io.

Closest aviation weather report (METAR) to Gabrovnitsa Air Base

Closest report is Sofia Airport, 51.3 nm (95.0 km) S.

2023/09/27 05:00 (retrieved 39 minutes ago)

LBSF 270500Z 00000KT CAVOK 12/10 Q1021 NOSIG

Closest aviation forecast (TAF) to Gabrovnitsa Air Base

Forecast is more than 12 hours old.

Closest forecast is Kuk√ęs International Airport, 155.0 nm (287.1 km) SW.

2023/09/26 12:00 Ammendment (retrieved 18 hours ago)

TAF AMD LAKU 261728Z 2612/2712 CNL